createdAt,value
2023-04-16T00:00:01.906Z,37.00
2023-04-16T00:01:01.885Z,28.80
2023-04-16T00:02:02.028Z,34.80
2023-04-16T00:03:01.996Z,31.20
2023-04-16T00:04:01.941Z,31.50
2023-04-16T00:05:01.860Z,30.80
2023-04-16T00:06:01.757Z,32.40
2023-04-16T00:07:01.765Z,32.90
2023-04-16T00:08:01.796Z,32.50
2023-04-16T00:09:02.003Z,33.70
2023-04-16T00:10:01.829Z,31.10
2023-04-16T00:11:01.788Z,31.90
2023-04-16T00:12:01.736Z,31.90
2023-04-16T00:13:01.693Z,30.10
2023-04-16T00:14:01.739Z,34.10
2023-04-16T00:15:01.726Z,33.20
2023-04-16T00:16:01.634Z,37.10
2023-04-16T00:17:01.624Z,36.30
2023-04-16T00:18:01.654Z,33.10
2023-04-16T00:19:01.609Z,35.80
2023-04-16T00:20:01.604Z,33.60
2023-04-16T00:21:01.741Z,36.80
2023-04-16T00:22:01.534Z,40.30
2023-04-16T00:23:02.489Z,37.70
2023-04-16T00:24:02.040Z,32.00
2023-04-16T00:25:01.471Z,32.00
2023-04-16T00:26:01.511Z,33.40
2023-04-16T00:27:01.668Z,38.70
2023-04-16T00:28:01.491Z,34.60
2023-04-16T00:29:01.568Z,36.70
2023-04-16T00:30:01.419Z,36.60
2023-04-16T00:31:01.457Z,35.40
2023-04-16T00:32:01.386Z,35.30
2023-04-16T00:33:01.405Z,35.90
2023-04-16T00:34:01.429Z,31.50
2023-04-16T00:35:01.421Z,38.00
2023-04-16T00:36:01.349Z,39.60
2023-04-16T00:37:01.310Z,33.50
2023-04-16T00:38:01.338Z,34.40
2023-04-16T00:39:01.304Z,37.10
2023-04-16T00:40:01.390Z,36.50
2023-04-16T00:41:01.319Z,34.80
2023-04-16T00:42:01.535Z,37.70
2023-04-16T00:43:01.289Z,34.90
2023-04-16T00:44:01.259Z,39.70
2023-04-16T00:45:01.221Z,33.00
2023-04-16T00:46:01.253Z,34.10
2023-04-16T00:47:01.191Z,40.60
2023-04-16T00:48:01.249Z,39.50
2023-04-16T00:49:01.416Z,37.40
2023-04-16T00:50:01.190Z,36.20
2023-04-16T00:51:01.154Z,31.00
2023-04-16T00:52:01.151Z,34.80
2023-04-16T00:53:01.116Z,31.80
2023-04-16T00:54:01.277Z,33.80
2023-04-16T00:55:01.086Z,40.20
2023-04-16T00:56:01.274Z,30.10
2023-04-16T00:57:01.102Z,34.50
2023-04-16T00:58:01.084Z,33.80
2023-04-16T00:59:01.127Z,39.30
2023-04-16T01:00:01.118Z,36.50
2023-04-16T01:01:01.051Z,32.40
2023-04-16T01:02:01.077Z,38.70
2023-04-16T01:03:01.251Z,37.30
2023-04-16T01:04:01.160Z,32.70
2023-04-16T01:05:00.945Z,34.70
2023-04-16T01:06:00.962Z,37.40
2023-04-16T01:07:00.941Z,38.40
2023-04-16T01:08:01.024Z,39.20
2023-04-16T01:09:00.872Z,35.10
2023-04-16T01:10:00.902Z,32.90
2023-04-16T01:11:00.910Z,34.50
2023-04-16T01:12:00.893Z,38.50
2023-04-16T01:13:00.895Z,41.90
2023-04-16T01:14:00.839Z,36.80
2023-04-16T01:15:00.878Z,40.90
2023-04-16T01:16:00.818Z,41.70
2023-04-16T01:17:00.819Z,42.70
2023-04-16T01:18:00.846Z,37.60
2023-04-16T01:19:00.791Z,42.00
2023-04-16T01:20:00.842Z,40.80
2023-04-16T01:21:00.744Z,39.70
2023-04-16T01:22:00.821Z,34.60
2023-04-16T01:23:00.734Z,33.80
2023-04-16T01:24:00.707Z,38.60
2023-04-16T01:25:00.681Z,38.50
2023-04-16T01:26:00.764Z,35.70
2023-04-16T01:27:00.655Z,39.80
2023-04-16T01:28:00.734Z,37.60
2023-04-16T01:29:00.656Z,41.80
2023-04-16T01:30:00.721Z,37.30
2023-04-16T01:31:00.665Z,37.30
2023-04-16T01:32:00.599Z,38.00
2023-04-16T01:33:00.719Z,39.90
2023-04-16T01:34:00.662Z,38.90
2023-04-16T01:35:00.616Z,34.50
2023-04-16T01:36:00.567Z,42.90
2023-04-16T01:37:00.537Z,37.70
2023-04-16T01:38:00.608Z,36.70
2023-04-16T01:39:00.541Z,38.50
2023-04-16T01:40:00.604Z,39.00
2023-04-16T01:41:00.498Z,40.70
2023-04-16T01:42:00.457Z,41.40
2023-04-16T01:43:00.443Z,43.10
2023-04-16T01:44:00.522Z,34.00
2023-04-16T01:45:00.487Z,37.00
2023-04-16T01:46:00.493Z,40.00
2023-04-16T01:47:00.553Z,35.30
2023-04-16T01:48:00.602Z,40.50
2023-04-16T01:49:00.354Z,39.70
2023-04-16T01:50:00.362Z,38.70
2023-04-16T01:51:00.429Z,41.40
2023-04-16T01:52:00.463Z,36.20
2023-04-16T01:53:00.328Z,36.00
2023-04-16T01:54:00.409Z,35.80
2023-04-16T01:55:00.303Z,37.50
2023-04-16T01:56:00.309Z,42.10
2023-04-16T01:57:00.320Z,37.10
2023-04-16T01:58:00.223Z,43.30
2023-04-16T01:59:00.230Z,40.50
2023-04-16T02:00:00.263Z,39.60
2023-04-16T02:01:00.347Z,39.00
2023-04-16T02:02:00.359Z,41.10
2023-04-16T02:03:00.467Z,40.60
2023-04-16T02:04:00.505Z,41.90
2023-04-16T02:05:00.225Z,36.30
2023-04-16T02:06:00.168Z,37.60
2023-04-16T02:07:00.164Z,36.60
2023-04-16T02:08:00.128Z,35.20
2023-04-16T02:09:00.144Z,34.40
2023-04-16T02:10:00.122Z,41.00
2023-04-16T02:11:00.070Z,35.80
2023-04-16T02:12:00.170Z,37.20
2023-04-16T02:13:00.162Z,40.10
2023-04-16T02:14:00.152Z,36.70
2023-04-16T02:15:00.039Z,35.60
2023-04-16T02:16:00.046Z,42.60
2023-04-16T02:16:59.999Z,34.60
2023-04-16T02:18:00.076Z,40.50
2023-04-16T02:19:00.004Z,37.60
2023-04-16T02:19:59.975Z,40.50
2023-04-16T02:20:59.936Z,35.00
2023-04-16T02:21:59.956Z,36.70
2023-04-16T02:22:59.932Z,35.90
2023-04-16T02:23:59.913Z,36.40
2023-04-16T02:24:59.945Z,37.40
2023-04-16T02:25:59.853Z,36.60
2023-04-16T02:26:59.938Z,37.60
2023-04-16T02:27:59.892Z,38.60
2023-04-16T02:28:59.874Z,36.00
2023-04-16T02:29:59.854Z,34.50
2023-04-16T02:30:59.811Z,38.40
2023-04-16T02:31:59.875Z,37.00
2023-04-16T02:32:59.808Z,36.60
2023-04-16T02:33:59.808Z,36.50
2023-04-16T02:34:59.766Z,36.00
2023-04-16T02:35:59.833Z,36.80
2023-04-16T02:36:59.763Z,37.40
2023-04-16T02:37:59.712Z,34.90
2023-04-16T02:38:59.696Z,41.80
2023-04-16T02:39:59.741Z,39.80
2023-04-16T02:40:59.699Z,40.10
2023-04-16T02:41:59.673Z,38.50
2023-04-16T02:42:59.649Z,36.70
2023-04-16T02:43:59.756Z,34.80
2023-04-16T02:44:59.631Z,38.00
2023-04-16T02:45:59.684Z,42.90
2023-04-16T02:46:59.600Z,41.80
2023-04-16T02:47:59.686Z,38.30
2023-04-16T02:48:59.585Z,39.50
2023-04-16T02:49:59.532Z,38.40
2023-04-16T02:50:59.553Z,38.20
2023-04-16T02:51:59.555Z,37.80
2023-04-16T02:52:59.531Z,40.80
2023-04-16T02:53:59.552Z,36.10
2023-04-16T02:54:59.562Z,37.60
2023-04-16T02:55:59.454Z,38.50
2023-04-16T02:56:59.444Z,36.60
2023-04-16T02:57:59.533Z,40.80
2023-04-16T02:58:59.486Z,41.10
2023-04-16T02:59:59.509Z,37.80
2023-04-16T03:00:59.457Z,40.80
2023-04-16T03:01:59.515Z,41.20
2023-04-16T03:02:59.481Z,38.60
2023-04-16T03:03:59.385Z,36.60
2023-04-16T03:04:59.390Z,39.70
2023-04-16T03:05:59.342Z,37.50
2023-04-16T03:06:59.369Z,37.70
2023-04-16T03:07:59.322Z,40.70
2023-04-16T03:08:59.300Z,46.00
2023-04-16T03:09:59.280Z,41.40
2023-04-16T03:10:59.326Z,41.90
2023-04-16T03:11:59.252Z,40.70
2023-04-16T03:12:59.219Z,43.90
2023-04-16T03:13:59.302Z,40.90
2023-04-16T03:14:59.334Z,41.80
2023-04-16T03:15:59.253Z,41.40
2023-04-16T03:16:59.223Z,42.80
2023-04-16T03:17:59.286Z,40.10
2023-04-16T03:18:59.169Z,41.40
2023-04-16T03:19:59.193Z,49.50
2023-04-16T03:20:59.135Z,42.80
2023-04-16T03:21:59.125Z,54.90
2023-04-16T03:22:59.134Z,46.30
2023-04-16T03:23:59.105Z,44.60
2023-04-16T03:24:59.120Z,42.90
2023-04-16T03:25:59.077Z,45.50
2023-04-16T03:26:59.042Z,38.70
2023-04-16T03:27:59.040Z,41.90
2023-04-16T03:28:59.030Z,44.30
2023-04-16T03:29:59.034Z,43.00
2023-04-16T03:30:59.076Z,59.40
2023-04-16T03:31:58.974Z,43.50
2023-04-16T03:32:59.082Z,43.50
2023-04-16T03:33:58.951Z,42.30
2023-04-16T03:34:58.985Z,42.70
2023-04-16T03:35:58.969Z,41.30
2023-04-16T03:36:58.962Z,44.20
2023-04-16T03:37:58.892Z,50.10
2023-04-16T03:38:58.896Z,41.60
2023-04-16T03:39:58.887Z,43.40
2023-04-16T03:40:58.909Z,46.90
2023-04-16T03:41:58.898Z,48.80
2023-04-16T03:42:58.889Z,43.40
2023-04-16T03:43:58.840Z,45.40
2023-04-16T03:44:58.844Z,45.00
2023-04-16T03:45:58.814Z,44.80
2023-04-16T03:46:58.986Z,54.20
2023-04-16T03:47:58.806Z,48.40
2023-04-16T03:48:58.768Z,50.90
2023-04-16T03:49:58.773Z,52.00
2023-04-16T03:50:58.733Z,53.20
2023-04-16T03:51:58.718Z,58.80
2023-04-16T03:52:58.687Z,57.30
2023-04-16T03:53:58.725Z,55.50
2023-04-16T03:54:58.667Z,58.90
2023-04-16T03:55:58.691Z,61.80
2023-04-16T03:56:58.660Z,63.00
2023-04-16T03:57:58.640Z,59.20
2023-04-16T03:58:58.633Z,59.30
2023-04-16T03:59:58.601Z,58.40
2023-04-16T04:00:58.603Z,60.60
2023-04-16T04:01:58.684Z,55.80
2023-04-16T04:02:58.801Z,62.10
2023-04-16T04:03:58.726Z,59.50
2023-04-16T04:04:58.585Z,59.00
2023-04-16T04:05:58.541Z,65.50
2023-04-16T04:06:58.515Z,61.70
2023-04-16T04:07:58.520Z,63.80
2023-04-16T04:08:58.591Z,66.60
2023-04-16T04:09:58.520Z,64.00
2023-04-16T04:10:58.557Z,66.80
2023-04-16T04:11:58.515Z,69.30
2023-04-16T04:12:58.513Z,69.70
2023-04-16T04:13:58.522Z,75.70
2023-04-16T04:14:58.603Z,69.90
2023-04-16T04:15:59.851Z,70.00
2023-04-16T04:17:03.524Z,76.20
2023-04-16T04:18:00.699Z,63.90
2023-04-16T04:18:58.357Z,68.50
2023-04-16T04:20:01.426Z,71.70
2023-04-16T04:20:58.392Z,84.70
2023-04-16T04:21:58.359Z,72.70
2023-04-16T04:22:58.332Z,72.90
2023-04-16T04:23:58.356Z,70.70
2023-04-16T04:24:58.340Z,71.90
2023-04-16T04:25:58.419Z,76.20
2023-04-16T04:26:58.820Z,75.20
2023-04-16T04:27:58.652Z,75.10
2023-04-16T04:28:58.346Z,72.80
2023-04-16T04:29:58.397Z,70.80
2023-04-16T04:30:58.282Z,74.90
2023-04-16T04:31:58.402Z,71.30
2023-04-16T04:32:58.431Z,79.30
2023-04-16T04:33:58.258Z,71.90
2023-04-16T04:34:58.181Z,73.70
2023-04-16T04:35:58.884Z,71.50
2023-04-16T04:36:58.285Z,66.70
2023-04-16T04:37:58.376Z,70.80
2023-04-16T04:38:58.297Z,72.40
2023-04-16T04:39:58.355Z,82.80
2023-04-16T04:40:58.313Z,83.20
2023-04-16T04:41:58.367Z,74.60
2023-04-16T04:42:58.122Z,73.50
2023-04-16T04:43:58.297Z,71.30
2023-04-16T04:44:58.605Z,72.70
2023-04-16T04:45:58.293Z,76.10
2023-04-16T04:46:58.489Z,69.90
2023-04-16T04:47:58.279Z,68.20
2023-04-16T04:49:00.588Z,71.80
2023-04-16T04:49:58.121Z,72.10
2023-04-16T04:50:58.249Z,73.30
2023-04-16T04:51:58.169Z,71.20
2023-04-16T04:52:58.116Z,75.00
2023-04-16T04:53:58.031Z,75.90
2023-04-16T04:54:58.542Z,88.60
2023-04-16T04:56:05.415Z,75.10
2023-04-16T04:56:58.270Z,70.70
2023-04-16T04:57:58.267Z,69.80
2023-04-16T04:58:58.187Z,69.10
2023-04-16T04:59:58.576Z,71.60
2023-04-16T05:00:58.693Z,64.80
2023-04-16T05:01:59.388Z,62.60
2023-04-16T05:02:58.099Z,72.70
2023-04-16T05:03:57.884Z,72.70
2023-04-16T05:04:58.313Z,69.80
2023-04-16T05:05:58.274Z,65.20
2023-04-16T05:06:58.086Z,59.30
2023-04-16T05:07:57.818Z,64.10
2023-04-16T05:08:58.192Z,64.40
2023-04-16T05:09:57.990Z,60.20
2023-04-16T05:10:57.736Z,69.70
2023-04-16T05:11:57.719Z,62.20
2023-04-16T05:12:57.941Z,63.80
2023-04-16T05:13:57.729Z,59.20
2023-04-16T05:14:58.979Z,62.70
2023-04-16T05:15:58.249Z,57.50
2023-04-16T05:16:57.765Z,58.00
2023-04-16T05:17:57.734Z,55.60
2023-04-16T05:18:57.613Z,50.00
2023-04-16T05:19:57.591Z,53.90
2023-04-16T05:20:57.672Z,51.50
2023-04-16T05:21:57.776Z,51.10
2023-04-16T05:22:57.742Z,49.70
2023-04-16T05:23:59.187Z,54.20
2023-04-16T05:24:58.126Z,57.10
2023-04-16T05:25:57.705Z,53.40
2023-04-16T05:26:57.654Z,50.60
2023-04-16T05:27:57.469Z,45.00
2023-04-16T05:28:57.458Z,43.80
2023-04-16T05:29:57.438Z,51.50
2023-04-16T05:30:57.435Z,50.80
2023-04-16T05:31:57.380Z,53.70
2023-04-16T05:32:57.444Z,56.40
2023-04-16T05:33:57.397Z,57.70
2023-04-16T05:34:57.419Z,66.00
2023-04-16T05:35:57.349Z,70.90
2023-04-16T05:36:57.326Z,56.90
2023-04-16T05:37:57.335Z,65.30
2023-04-16T05:38:57.384Z,64.50
2023-04-16T05:39:57.330Z,60.20
2023-04-16T05:40:57.304Z,59.90
2023-04-16T05:41:57.261Z,64.40
2023-04-16T05:42:57.220Z,64.10
2023-04-16T05:43:57.385Z,62.60
2023-04-16T05:44:57.225Z,63.00
2023-04-16T05:45:57.312Z,66.80
2023-04-16T05:46:57.221Z,69.00
2023-04-16T05:47:57.211Z,64.90
2023-04-16T05:48:57.286Z,73.30
2023-04-16T05:49:57.140Z,68.40
2023-04-16T05:50:57.144Z,65.90
2023-04-16T05:51:57.136Z,74.80
2023-04-16T05:52:57.259Z,69.60
2023-04-16T05:53:57.091Z,67.70
2023-04-16T05:54:57.067Z,72.50
2023-04-16T05:55:57.056Z,67.00
2023-04-16T05:56:57.052Z,77.90
2023-04-16T05:57:57.086Z,82.90
2023-04-16T05:58:57.042Z,81.30
2023-04-16T05:59:57.046Z,71.90
2023-04-16T06:00:57.017Z,67.30
2023-04-16T06:01:57.034Z,67.60
2023-04-16T06:02:57.080Z,76.90
2023-04-16T06:03:57.138Z,66.30
2023-04-16T06:04:56.956Z,72.10
2023-04-16T06:05:56.985Z,72.10
2023-04-16T06:06:56.937Z,74.30
2023-04-16T06:07:56.907Z,74.80
2023-04-16T06:08:56.873Z,76.90
2023-04-16T06:09:56.892Z,71.50
2023-04-16T06:10:56.924Z,72.90
2023-04-16T06:11:56.896Z,73.90
2023-04-16T06:12:56.833Z,72.80
2023-04-16T06:13:56.845Z,70.70
2023-04-16T06:14:56.841Z,71.80
2023-04-16T06:15:56.808Z,72.10
2023-04-16T06:16:56.835Z,69.90
2023-04-16T06:17:57.562Z,75.00
2023-04-16T06:18:56.835Z,68.80
2023-04-16T06:19:56.790Z,73.10
2023-04-16T06:20:58.082Z,75.00
2023-04-16T06:21:56.773Z,72.60
2023-04-16T06:22:56.807Z,61.60
2023-04-16T06:23:56.782Z,66.80
2023-04-16T06:24:56.726Z,69.70
2023-04-16T06:25:56.742Z,67.70
2023-04-16T06:26:56.808Z,75.60
2023-04-16T06:27:56.642Z,66.30
2023-04-16T06:28:56.791Z,66.60
2023-04-16T06:29:56.635Z,69.40
2023-04-16T06:30:56.707Z,67.50
2023-04-16T06:31:56.676Z,68.10
2023-04-16T06:32:56.668Z,63.30
2023-04-16T06:33:56.681Z,63.60
2023-04-16T06:34:56.771Z,76.60
2023-04-16T06:35:56.638Z,66.00
2023-04-16T06:36:56.758Z,70.70
2023-04-16T06:37:56.668Z,66.40
2023-04-16T06:38:56.665Z,63.50
2023-04-16T06:39:56.621Z,63.20
2023-04-16T06:40:56.474Z,65.30
2023-04-16T06:41:56.499Z,63.20
2023-04-16T06:42:56.544Z,62.90
2023-04-16T06:43:56.510Z,73.40
2023-04-16T06:44:56.440Z,72.30
2023-04-16T06:45:56.408Z,64.10
2023-04-16T06:46:56.444Z,69.20
2023-04-16T06:47:56.409Z,54.60
2023-04-16T06:48:56.385Z,62.50
2023-04-16T06:49:56.356Z,60.10
2023-04-16T06:50:56.344Z,59.40
2023-04-16T06:51:56.290Z,63.90
2023-04-16T06:52:56.286Z,60.30
2023-04-16T06:53:56.309Z,66.30
2023-04-16T06:54:56.294Z,57.00
2023-04-16T06:55:56.255Z,54.40
2023-04-16T06:56:56.256Z,56.00
2023-04-16T06:57:56.292Z,59.60
2023-04-16T06:58:56.259Z,55.30
2023-04-16T06:59:56.198Z,51.10
2023-04-16T07:00:56.268Z,48.00
2023-04-16T07:01:56.206Z,42.30
2023-04-16T07:02:58.380Z,48.70
2023-04-16T07:03:56.442Z,46.90
2023-04-16T07:04:56.154Z,49.10
2023-04-16T07:05:56.282Z,54.30
2023-04-16T07:06:56.106Z,41.30
2023-04-16T07:07:56.166Z,49.60
2023-04-16T07:08:56.079Z,45.00
2023-04-16T07:09:56.081Z,47.90
2023-04-16T07:10:56.048Z,49.10
2023-04-16T07:11:56.046Z,60.90
2023-04-16T07:12:56.064Z,46.90
2023-04-16T07:13:56.029Z,45.20
2023-04-16T07:14:56.006Z,52.50
2023-04-16T07:15:55.972Z,45.50
2023-04-16T07:16:56.098Z,45.60
2023-04-16T07:17:56.042Z,42.50
2023-04-16T07:18:55.933Z,37.80
2023-04-16T07:19:55.993Z,42.30
2023-04-16T07:20:56.017Z,42.60
2023-04-16T07:21:55.963Z,38.70
2023-04-16T07:22:55.920Z,42.40
2023-04-16T07:23:55.904Z,43.40
2023-04-16T07:24:55.974Z,42.30
2023-04-16T07:25:55.962Z,40.90
2023-04-16T07:26:55.924Z,41.60
2023-04-16T07:27:55.951Z,43.10
2023-04-16T07:28:55.958Z,35.20
2023-04-16T07:29:55.897Z,37.20
2023-04-16T07:30:55.909Z,37.30
2023-04-16T07:31:55.878Z,40.60
2023-04-16T07:32:55.946Z,39.60
2023-04-16T07:33:55.735Z,37.90
2023-04-16T07:34:55.746Z,38.50
2023-04-16T07:35:55.792Z,40.10
2023-04-16T07:36:55.757Z,36.40
2023-04-16T07:37:55.722Z,38.00
2023-04-16T07:38:55.741Z,38.60
2023-04-16T07:39:57.308Z,41.20
2023-04-16T07:40:55.689Z,34.20
2023-04-16T07:41:55.629Z,34.90
2023-04-16T07:42:55.670Z,38.10
2023-04-16T07:43:55.710Z,31.30
2023-04-16T07:44:55.603Z,34.60
2023-04-16T07:45:56.616Z,35.30
2023-04-16T07:46:55.716Z,41.30
2023-04-16T07:47:55.657Z,34.60
2023-04-16T07:48:55.653Z,33.40
2023-04-16T07:49:55.522Z,32.60
2023-04-16T07:50:55.530Z,33.10
2023-04-16T07:51:55.526Z,32.80
2023-04-16T07:52:55.495Z,34.50
2023-04-16T07:53:55.479Z,30.30
2023-04-16T07:54:55.496Z,32.30
2023-04-16T07:55:55.469Z,36.40
2023-04-16T07:56:55.472Z,29.70
2023-04-16T07:57:55.442Z,34.20
2023-04-16T07:58:55.420Z,37.60
2023-04-16T07:59:55.388Z,33.60
2023-04-16T08:00:55.399Z,35.20
2023-04-16T08:01:55.492Z,27.50
2023-04-16T08:02:55.483Z,31.90
2023-04-16T08:03:55.450Z,29.60
2023-04-16T08:04:55.397Z,31.00
2023-04-16T08:05:55.328Z,33.80
2023-04-16T08:06:55.326Z,32.80
2023-04-16T08:07:55.377Z,32.80
2023-04-16T08:08:55.279Z,24.60
2023-04-16T08:09:55.279Z,27.00
2023-04-16T08:10:55.332Z,26.50
2023-04-16T08:11:55.255Z,26.90
2023-04-16T08:12:55.233Z,31.70
2023-04-16T08:13:55.278Z,30.30
2023-04-16T08:14:55.221Z,28.50
2023-04-16T08:15:55.181Z,32.50
2023-04-16T08:16:55.240Z,31.40
2023-04-16T08:17:55.212Z,30.00
2023-04-16T08:18:55.145Z,28.30
2023-04-16T08:19:55.151Z,25.30
2023-04-16T08:20:55.143Z,29.60
2023-04-16T08:21:55.103Z,28.20
2023-04-16T08:22:55.143Z,31.20
2023-04-16T08:23:55.084Z,30.10
2023-04-16T08:24:55.075Z,28.20
2023-04-16T08:25:55.067Z,27.10
2023-04-16T08:26:58.438Z,32.80
2023-04-16T08:27:55.029Z,32.00
2023-04-16T08:28:55.022Z,34.00
2023-04-16T08:29:55.026Z,30.00
2023-04-16T08:30:55.046Z,28.50
2023-04-16T08:31:55.013Z,32.50
2023-04-16T08:32:55.015Z,29.00
2023-04-16T08:33:54.998Z,28.90
2023-04-16T08:34:54.951Z,30.10
2023-04-16T08:35:54.926Z,34.20
2023-04-16T08:36:54.894Z,33.40
2023-04-16T08:37:54.948Z,31.60
2023-04-16T08:38:54.900Z,35.40
2023-04-16T08:39:54.883Z,30.90
2023-04-16T08:40:54.856Z,30.30
2023-04-16T08:41:54.839Z,33.90
2023-04-16T08:42:54.858Z,37.40
2023-04-16T08:43:54.831Z,33.70
2023-04-16T08:44:54.792Z,33.60
2023-04-16T08:45:54.783Z,33.00
2023-04-16T08:46:54.944Z,34.20
2023-04-16T08:47:54.812Z,33.30
2023-04-16T08:48:54.759Z,33.80
2023-04-16T08:49:56.302Z,37.20
2023-04-16T08:50:55.478Z,37.90
2023-04-16T08:51:54.693Z,42.90
2023-04-16T08:52:54.667Z,37.50
2023-04-16T08:53:54.688Z,32.10
2023-04-16T08:54:56.744Z,34.40
2023-04-16T08:55:54.659Z,36.00
2023-04-16T08:56:54.627Z,31.20
2023-04-16T08:57:54.621Z,34.30
2023-04-16T08:58:54.610Z,32.20
2023-04-16T08:59:54.601Z,31.90
2023-04-16T09:00:54.611Z,36.20
2023-04-16T09:01:54.644Z,35.00
2023-04-16T09:02:54.686Z,34.30
2023-04-16T09:03:54.646Z,35.90
2023-04-16T09:04:54.562Z,36.30
2023-04-16T09:05:54.617Z,37.70
2023-04-16T09:06:54.482Z,30.60
2023-04-16T09:07:54.546Z,29.10
2023-04-16T09:08:54.488Z,31.40
2023-04-16T09:09:54.462Z,28.90
2023-04-16T09:10:54.431Z,31.60
2023-04-16T09:11:54.461Z,31.30
2023-04-16T09:12:54.421Z,31.50
2023-04-16T09:13:54.409Z,28.30
2023-04-16T09:14:54.413Z,28.20
2023-04-16T09:15:54.433Z,28.50
2023-04-16T09:16:54.387Z,25.30
2023-04-16T09:17:54.429Z,27.70
2023-04-16T09:18:54.320Z,31.20
2023-04-16T09:19:54.342Z,28.90
2023-04-16T09:20:54.309Z,32.10
2023-04-16T09:21:54.280Z,29.20
2023-04-16T09:22:54.302Z,29.00
2023-04-16T09:23:54.254Z,29.30
2023-04-16T09:24:54.271Z,32.00
2023-04-16T09:25:54.252Z,28.10
2023-04-16T09:26:54.261Z,31.40
2023-04-16T09:27:54.261Z,29.00
2023-04-16T09:28:54.212Z,28.90
2023-04-16T09:29:54.204Z,28.80
2023-04-16T09:30:54.235Z,31.00
2023-04-16T09:31:54.265Z,34.40
2023-04-16T09:32:54.167Z,31.60
2023-04-16T09:33:54.151Z,31.50
2023-04-16T09:34:54.112Z,33.00
2023-04-16T09:35:54.144Z,30.60
2023-04-16T09:36:54.106Z,32.30
2023-04-16T09:37:54.100Z,34.60
2023-04-16T09:38:56.243Z,30.60
2023-04-16T09:39:54.146Z,32.60
2023-04-16T09:40:54.045Z,32.10
2023-04-16T09:41:54.126Z,32.90
2023-04-16T09:42:54.082Z,33.10
2023-04-16T09:43:54.018Z,26.70
2023-04-16T09:44:54.089Z,30.70
2023-04-16T09:45:54.149Z,31.60
2023-04-16T09:46:54.038Z,33.00
2023-04-16T09:47:54.025Z,33.40
2023-04-16T09:48:53.977Z,32.50
2023-04-16T09:49:54.101Z,30.80
2023-04-16T09:50:53.982Z,26.80
2023-04-16T09:51:54.045Z,30.60
2023-04-16T09:52:53.990Z,29.90
2023-04-16T09:53:54.095Z,28.40
2023-04-16T09:54:53.998Z,29.60
2023-04-16T09:55:54.249Z,28.20
2023-04-16T09:56:54.090Z,22.10
2023-04-16T09:57:54.039Z,26.40
2023-04-16T09:58:54.009Z,23.50
2023-04-16T09:59:53.961Z,24.40
2023-04-16T10:00:53.941Z,21.80
2023-04-16T10:02:14.301Z,22.10
2023-04-16T10:02:53.927Z,21.70
2023-04-16T10:03:54.020Z,23.00
2023-04-16T10:04:53.921Z,23.00
2023-04-16T10:05:54.018Z,21.90
2023-04-16T10:06:53.842Z,23.50
2023-04-16T10:07:53.767Z,22.80
2023-04-16T10:08:53.878Z,22.20
2023-04-16T10:09:53.952Z,21.80
2023-04-16T10:10:53.984Z,21.20
2023-04-16T10:11:53.948Z,19.20
2023-04-16T10:12:53.819Z,17.40
2023-04-16T10:13:53.748Z,18.00
2023-04-16T10:14:53.931Z,16.10
2023-04-16T10:15:53.778Z,19.50
2023-04-16T10:16:53.787Z,18.40
2023-04-16T10:17:53.966Z,20.00
2023-04-16T10:18:53.784Z,18.80
2023-04-16T10:19:53.792Z,18.70
2023-04-16T10:20:53.565Z,18.90
2023-04-16T10:21:53.956Z,18.70
2023-04-16T10:22:54.019Z,18.40
2023-04-16T10:23:53.531Z,19.10
2023-04-16T10:24:53.592Z,19.30
2023-04-16T10:25:55.179Z,18.70
2023-04-16T10:26:53.658Z,18.70
2023-04-16T10:27:53.458Z,18.80
2023-04-16T10:28:53.900Z,18.00
2023-04-16T10:29:53.483Z,19.30
2023-04-16T10:30:53.460Z,20.40
2023-04-16T10:31:53.367Z,20.80
2023-04-16T10:32:53.434Z,20.50
2023-04-16T10:33:53.353Z,19.70
2023-04-16T10:34:53.323Z,19.70
2023-04-16T10:36:05.027Z,18.40
2023-04-16T10:36:53.318Z,19.30
2023-04-16T10:37:53.287Z,18.60
2023-04-16T10:38:53.301Z,18.00
2023-04-16T10:39:53.371Z,17.10
2023-04-16T10:40:53.375Z,17.10
2023-04-16T10:41:53.406Z,19.20
2023-04-16T10:42:53.229Z,19.30
2023-04-16T10:43:53.376Z,19.10
2023-04-16T10:44:53.379Z,22.90
2023-04-16T10:45:53.341Z,19.60
2023-04-16T10:46:53.258Z,20.60
2023-04-16T10:47:53.208Z,20.40
2023-04-16T10:48:53.156Z,22.20
2023-04-16T10:49:53.204Z,18.80
2023-04-16T10:50:53.138Z,29.10
2023-04-16T10:51:53.227Z,21.20
2023-04-16T10:52:53.141Z,18.70
2023-04-16T10:53:53.109Z,18.70
2023-04-16T10:54:53.061Z,18.70
2023-04-16T10:55:53.060Z,18.60
2023-04-16T10:56:53.060Z,18.20
2023-04-16T10:57:53.609Z,21.40
2023-04-16T10:58:53.002Z,27.40
2023-04-16T10:59:53.033Z,21.30
2023-04-16T11:00:52.961Z,19.90
2023-04-16T11:01:53.075Z,18.70
2023-04-16T11:02:53.046Z,18.70
2023-04-16T11:03:53.030Z,20.50
2023-04-16T11:04:53.038Z,20.20
2023-04-16T11:05:52.919Z,17.90
2023-04-16T11:06:52.908Z,20.30
2023-04-16T11:07:52.905Z,23.00
2023-04-16T11:08:55.018Z,20.40
2023-04-16T11:09:52.899Z,18.60
2023-04-16T11:10:52.909Z,19.00
2023-04-16T11:11:52.841Z,20.20
2023-04-16T11:12:52.823Z,21.10
2023-04-16T11:13:52.815Z,19.80
2023-04-16T11:14:52.818Z,22.00
2023-04-16T11:15:52.794Z,20.80
2023-04-16T11:16:52.819Z,21.30
2023-04-16T11:17:52.827Z,20.60
2023-04-16T11:18:53.970Z,19.90
2023-04-16T11:19:53.571Z,21.90
2023-04-16T11:20:52.691Z,24.20
2023-04-16T11:21:52.737Z,28.60
2023-04-16T11:22:52.682Z,28.10
2023-04-16T11:23:52.691Z,22.00
2023-04-16T11:24:52.638Z,21.60
2023-04-16T11:25:52.705Z,21.40
2023-04-16T11:26:52.603Z,21.20
2023-04-16T11:27:52.706Z,22.00
2023-04-16T11:28:52.583Z,21.10
2023-04-16T11:29:52.568Z,20.30
2023-04-16T11:30:52.570Z,19.30
2023-04-16T11:31:52.746Z,19.80
2023-04-16T11:32:52.671Z,19.90
2023-04-16T11:33:52.572Z,20.80
2023-04-16T11:34:52.604Z,21.90
2023-04-16T11:35:52.538Z,21.20
2023-04-16T11:36:52.588Z,21.10
2023-04-16T11:37:52.530Z,21.50
2023-04-16T11:38:52.514Z,20.80
2023-04-16T11:39:52.503Z,21.50
2023-04-16T11:40:52.512Z,22.00
2023-04-16T11:41:52.557Z,21.00
2023-04-16T11:42:52.513Z,21.80
2023-04-16T11:43:52.501Z,20.80
2023-04-16T11:44:52.540Z,22.80
2023-04-16T11:45:52.539Z,21.70
2023-04-16T11:46:52.403Z,33.00
2023-04-16T11:47:52.605Z,24.20
2023-04-16T11:48:52.326Z,25.80
2023-04-16T11:49:52.348Z,25.60
2023-04-16T11:50:52.301Z,23.10
2023-04-16T11:51:52.330Z,27.90
2023-04-16T11:52:52.346Z,24.00
2023-04-16T11:53:52.260Z,27.90
2023-04-16T11:54:52.264Z,27.60
2023-04-16T11:55:52.252Z,25.70
2023-04-16T11:56:52.306Z,24.50
2023-04-16T11:57:52.691Z,22.70
2023-04-16T11:58:52.243Z,26.30
2023-04-16T12:00:02.821Z,28.80
2023-04-16T12:00:52.278Z,30.00
2023-04-16T12:01:52.297Z,24.80
2023-04-16T12:02:52.376Z,23.00
2023-04-16T12:03:52.334Z,30.10
2023-04-16T12:04:52.228Z,24.00
2023-04-16T12:05:52.130Z,25.90
2023-04-16T12:06:52.221Z,25.70
2023-04-16T12:07:52.073Z,22.70
2023-04-16T12:08:52.035Z,22.20
2023-04-16T12:09:52.036Z,25.20
2023-04-16T12:10:52.064Z,25.20
2023-04-16T12:11:52.031Z,22.80
2023-04-16T12:12:51.996Z,21.60
2023-04-16T12:13:52.004Z,22.10
2023-04-16T12:14:52.050Z,23.30
2023-04-16T12:15:51.988Z,21.30
2023-04-16T12:16:52.078Z,24.60
2023-04-16T12:17:51.951Z,20.80
2023-04-16T12:18:51.971Z,19.90
2023-04-16T12:19:51.945Z,20.20
2023-04-16T12:20:52.104Z,19.20
2023-04-16T12:21:51.980Z,21.20
2023-04-16T12:22:51.944Z,18.70
2023-04-16T12:23:51.973Z,20.60
2023-04-16T12:24:51.949Z,19.60
2023-04-16T12:25:51.934Z,20.70
2023-04-16T12:26:51.922Z,24.30
2023-04-16T12:27:53.691Z,20.10
2023-04-16T12:28:51.953Z,21.50
2023-04-16T12:29:51.775Z,18.30
2023-04-16T12:30:51.789Z,21.30
2023-04-16T12:31:51.800Z,21.50
2023-04-16T12:32:52.306Z,19.70
2023-04-16T12:33:51.827Z,23.10
2023-04-16T12:34:51.760Z,20.20
2023-04-16T12:35:51.746Z,19.60
2023-04-16T12:36:52.520Z,18.60
2023-04-16T12:37:51.768Z,18.50
2023-04-16T12:38:51.666Z,17.70
2023-04-16T12:39:51.656Z,17.80
2023-04-16T12:40:51.628Z,18.30
2023-04-16T12:41:51.628Z,18.20
2023-04-16T12:42:51.596Z,18.10
2023-04-16T12:43:51.581Z,17.50
2023-04-16T12:44:51.571Z,19.60
2023-04-16T12:45:51.601Z,21.50
2023-04-16T12:46:51.651Z,19.40
2023-04-16T12:47:51.558Z,18.60
2023-04-16T12:48:51.567Z,18.50
2023-04-16T12:49:51.518Z,18.70
2023-04-16T12:50:51.494Z,18.40
2023-04-16T12:51:51.548Z,25.50